Airfield :
LOGIN :

Register | Disclaimer

   EN    FR    IT 

 










Legend :    VFR   Marginal VFR   IFR   Intensive IFR   Very Intensive IFR
Visi :
Ceiling :
>= 8 km
>= 3000ft
5 to 8 km
1000 to 3000 ft
1500m to 5 km
500 to 1000 ft
800 to 1500m
200 to 500 ft
< 800m
< 200 ft
Symbols :   Thunderstorms  Fog  Heavy snow  Heavy precipitations  Wind > 20 kt
SIGMETs :     Misc.  Thunderstorms  Icing  Turbulence  Mountain Waves  Volcanic Ashes







- Airport Elevation : 1036 ft
- IATA code : ERF


EDDE - Erfurt

CURRENT METAR :
  • 121750Z 23007KT 9999 FEW040 01/M02 Q1011 NOSIG

EXPIRED METARs :
  • 121720Z 23007KT 9999 FEW023 SCT040 BKN050 02/M02 Q1011 NOSIG
  • 121650Z 24015KT 9999 FEW023 02/M03 Q1010 TEMPO 24015G25KT
  • 121620Z 24016KT 9999 FEW040 02/M03 Q1009 TEMPO 24015G25KT
  • 121550Z 24019KT 9999 FEW020 02/M03 Q1008 TEMPO 24015G25KT
  • 121520Z 24019KT 9999 FEW023 02/M03 Q1008 TEMPO 24015G25KT

TAF TAF EDDE
Valid from the 12 at 18:00 until the 13 at 18:00 UTC


121700Z 1218/1318 24015G25KT 9999 SCT030
BECMG 1218/1220 22011KT
BECMG 1307/1309 21015G25KT
TEMPO 1315/1318 4500 -RASN
No reported NOTAMs for that airfield.



MET'MAP, your aeronautical weather chart ! - Copyright ORBIFLY December 2007 - Disclaimer

ORBIFLY MET'MAP TEAM :

Programming & Development : Alexandra Zaïnal
Concept & Development : Baudouin d'Aumeries
Co-Development & Prog : Marc-Olivier Méhu
Technical & hardware support : Manuel Goepfert

Contact : metmap@orbifly.com




SOURCES & CREDITS :

   NOAA